Time;durP1;ratioP1;P1;durP2;ratioP2;P2;SDS_P1;SDS_P2;PMS_P1;PMS_P2;Temp;Humidity;BMP_temperature;BMP_pressure;BME280_temperature;BME280_humidity;BME280_pressure;Samples;Min_cycle;Max_cycle;Signal;HPM_P1;HPM_P2
2021/03/26 00:01:20;;;;;;;25.45;16.48;;;7.30;80.90;;;;;;5054578;28;20032;-77
2021/03/26 00:03:48;;;;;;;36.28;18.25;;;7.30;80.80;;;;;;5052976;28;20044;-77
2021/03/26 00:06:18;;;;;;;34.40;20.05;;;7.30;81.50;;;;;;5054336;28;20163;-77
2021/03/26 00:08:44;;;;;;;30.55;17.30;;;7.30;82.00;;;;;;5054202;28;20025;-76
2021/03/26 00:11:11;;;;;;;32.85;17.77;;;7.30;82.60;;;;;;5052990;28;20009;-76
2021/03/26 00:13:37;;;;;;;36.60;19.77;;;7.30;82.80;;;;;;5052849;28;20020;-77
2021/03/26 00:16:03;;;;;;;33.42;19.25;;;7.30;82.70;;;;;;5053890;28;20017;-76
2021/03/26 00:18:29;;;;;;;34.00;20.15;;;7.20;83.20;;;;;;5052785;28;20021;-77
2021/03/26 00:20:55;;;;;;;35.88;17.92;;;7.20;83.60;;;;;;5054199;28;20097;-77
2021/03/26 00:23:20;;;;;;;37.22;21.50;;;7.20;84.00;;;;;;5054484;28;20024;-77
2021/03/26 00:25:46;;;;;;;40.88;23.65;;;7.20;83.70;;;;;;5052777;28;20021;-76
2021/03/26 00:28:12;;;;;;;36.75;23.27;;;7.20;84.80;;;;;;5052735;28;20028;-76
2021/03/26 00:30:38;;;;;;;31.40;19.45;;;7.20;85.60;;;;;;5053833;28;20100;-76
2021/03/26 00:33:07;;;;;;;34.78;20.90;;;7.20;85.80;;;;;;5052711;28;20461;-76
2021/03/26 00:35:33;;;;;;;34.38;20.75;;;7.20;85.10;;;;;;5052443;28;20150;-76
2021/03/26 00:37:59;;;;;;;31.67;21.73;;;7.10;85.70;;;;;;5052670;28;20037;-76
2021/03/26 00:40:25;;;;;;;37.88;23.38;;;7.10;86.20;;;;;;5052575;28;20017;-76
2021/03/26 00:42:51;;;;;;;38.83;22.88;;;7.10;87.20;;;;;;5052187;28;20020;-76
2021/03/26 00:45:23;;;;;;;38.92;23.20;;;7.10;87.70;;;;;;5052470;28;20013;-76
2021/03/26 00:47:48;;;;;;;36.75;22.30;;;7.20;87.10;;;;;;5052116;28;20029;-76
2021/03/26 00:50:23;;;;;;;41.30;25.48;;;7.10;87.80;;;;;;5053769;28;20369;-76
2021/03/26 00:52:49;;;;;;;37.25;23.98;;;7.10;88.30;;;;;;5053001;28;20017;-76
2021/03/26 00:55:16;;;;;;;38.10;24.08;;;7.10;88.10;;;;;;5053572;28;20099;-77
2021/03/26 00:57:42;;;;;;;40.85;25.73;;;7.10;87.70;;;;;;5053427;28;20028;-77
2021/03/26 01:00:11;;;;;;;36.42;22.38;;;7.10;87.80;;;;;;5052309;28;20016;-76
2021/03/26 01:02:37;;;;;;;40.85;24.20;;;7.10;87.60;;;;;;5051930;28;20049;-76
2021/03/26 01:05:08;;;;;;;34.05;22.73;;;7.10;87.80;;;;;;5053261;28;20044;-77
2021/03/26 01:07:33;;;;;;;46.90;30.23;;;7.10;87.60;;;;;;5052834;28;20483;-76
2021/03/26 01:09:59;;;;;;;49.10;27.77;;;7.10;89.00;;;;;;5051979;28;20028;-77
2021/03/26 01:12:24;;;;;;;48.70;28.20;;;7.10;89.20;;;;;;5051847;28;20012;-76
2021/03/26 01:14:50;;;;;;;42.88;27.65;;;7.10;90.00;;;;;;5051733;28;20009;-77
2021/03/26 01:17:16;;;;;;;51.40;30.48;;;7.10;90.00;;;;;;5053177;28;20025;-77
2021/03/26 01:19:43;;;;;;;42.45;26.02;;;7.10;90.00;;;;;;5052873;28;20071;-76
2021/03/26 01:22:10;;;;;;;43.28;28.95;;;7.10;90.10;;;;;;5051731;28;20049;-77
2021/03/26 01:24:35;;;;;;;45.53;29.00;;;7.00;90.00;;;;;;5051193;28;20013;-75
2021/03/26 01:27:01;;;;;;;37.65;24.58;;;7.00;90.00;;;;;;5051515;28;20027;-77
2021/03/26 01:29:26;;;;;;;49.17;28.58;;;7.00;90.00;;;;;;5052545;28;20071;-76
2021/03/26 01:31:52;;;;;;;54.15;31.55;;;7.00;90.00;;;;;;5051348;28;20029;-77
2021/03/26 01:34:18;;;;;;;44.90;28.67;;;7.00;90.40;;;;;;5051548;28;20362;-76
2021/03/26 01:36:43;;;;;;;49.58;30.60;;;7.00;90.20;;;;;;5051259;28;20115;-76
2021/03/26 01:39:09;;;;;;;49.67;30.27;;;7.00;90.40;;;;;;5052746;28;20029;-76
2021/03/26 01:41:41;;;;;;;48.40;30.63;;;7.00;90.30;;;;;;5052290;28;20044;-76
2021/03/26 01:44:08;;;;;;;46.05;27.45;;;7.00;90.30;;;;;;5051281;28;20103;-76
2021/03/26 01:46:35;;;;;;;43.40;27.40;;;7.00;90.20;;;;;;5054100;28;20109;-76
2021/03/26 01:49:03;;;;;;;48.22;30.92;;;7.00;90.30;;;;;;5051177;28;20116;-77
2021/03/26 01:51:33;;;;;;;49.85;28.38;;;7.10;90.40;;;;;;5051223;28;20025;-77
2021/03/26 01:54:00;;;;;;;46.55;28.70;;;7.10;90.20;;;;;;5052357;28;20025;-76
2021/03/26 01:56:28;;;;;;;46.88;28.95;;;7.10;90.10;;;;;;5052793;28;20017;-76
2021/03/26 01:58:53;;;;;;;52.58;30.15;;;7.10;90.10;;;;;;5051374;28;20373;-76
2021/03/26 02:01:26;;;;;;;54.17;32.50;;;7.10;90.10;;;;;;5052163;28;20017;-76
2021/03/26 02:03:57;;;;;;;52.45;31.67;;;7.10;90.10;;;;;;5050866;28;20074;-77
2021/03/26 02:06:22;;;;;;;;;;;7.20;90.40;;;;;;5051237;28;20044;-77
2021/03/26 02:08:51;;;;;;;57.63;32.13;;;7.20;90.40;;;;;;5050757;28;19912;-77
2021/03/26 02:12:03;;;;;;;44.80;26.25;;;7.10;90.20;;;;;;5050798;28;20369;-76
2021/03/26 02:14:37;;;;;;;45.67;29.05;;;7.10;90.10;;;;;;5048674;28;20041;-76
2021/03/26 02:17:04;;;;;;;44.78;28.73;;;7.10;90.20;;;;;;5051938;28;20059;-76
2021/03/26 02:19:56;;;;;;;48.97;29.48;;;7.00;90.30;;;;;;5051963;28;20045;-76
2021/03/26 02:22:25;;;;;;;47.75;29.58;;;7.00;90.30;;;;;;5051850;28;20021;-76
2021/03/26 02:24:52;;;;;;;43.75;27.65;;;7.00;90.40;;;;;;5050598;28;20020;-77
2021/03/26 02:27:23;;;;;;;49.38;29.73;;;6.90;90.40;;;;;;5052153;28;20025;-76
2021/03/26 02:29:50;;;;;;;39.75;25.95;;;7.00;90.50;;;;;;5050604;28;20040;-77
2021/03/26 02:32:33;;;;;;;44.05;27.33;;;6.90;90.40;;;;;;5051993;28;20052;-76
2021/03/26 02:35:16;;;;;;;51.28;30.27;;;6.90;90.60;;;;;;5051000;28;20420;-76
2021/03/26 02:37:46;;;;;;;52.22;33.08;;;6.90;90.30;;;;;;5050759;28;20025;-76
2021/03/26 02:40:15;;;;;;;;;;;6.80;90.60;;;;;;5055783;28;20431;-76
2021/03/26 02:42:41;;;;;;;42.35;28.02;;;6.80;90.70;;;;;;5055705;28;20382;-76
2021/03/26 02:45:17;;;;;;;42.63;29.38;;;6.80;90.60;;;;;;5056005;28;20025;-76
2021/03/26 02:47:55;;;;;;;47.97;27.48;;;6.80;90.60;;;;;;5055699;28;20016;-76
2021/03/26 02:50:46;;;;;;;47.33;30.25;;;6.70;90.60;;;;;;5054657;28;20025;-76
2021/03/26 02:53:30;;;;;;;;;;;6.70;90.70;;;;;;5055107;28;20025;-77
2021/03/26 02:56:14;;;;;;;48.33;29.48;;;6.70;90.80;;;;;;5054379;28;19947;-77
2021/03/26 02:58:47;;;;;;;42.85;26.38;;;6.70;90.80;;;;;;5055288;28;20025;-76
2021/03/26 03:01:34;;;;;;;44.78;28.10;;;6.70;90.80;;;;;;5055758;28;20428;-76
2021/03/26 03:04:08;;;;;;;46.65;28.08;;;6.70;90.90;;;;;;5055183;28;20429;-77
2021/03/26 03:06:40;;;;;;;46.63;28.80;;;6.70;91.00;;;;;;5054032;28;20045;-77
2021/03/26 03:09:09;;;;;;;45.85;27.92;;;6.70;90.90;;;;;;5054326;28;20020;-76
2021/03/26 03:11:59;;;;;;;46.13;27.08;;;6.70;90.90;;;;;;5054088;28;20013;-76
2021/03/26 03:14:32;;;;;;;44.53;27.83;;;6.80;90.90;;;;;;5053782;28;20175;-76
2021/03/26 03:17:01;;;;;;;45.50;27.38;;;6.80;90.90;;;;;;5053822;28;20024;-76
2021/03/26 03:19:47;;;;;;;44.30;27.00;;;6.80;90.90;;;;;;5054049;28;20032;-77
2021/03/26 03:22:34;;;;;;;45.28;27.40;;;6.90;90.70;;;;;;5054036;28;20020;-77
2021/03/26 03:25:11;;;;;;;43.17;28.25;;;6.90;90.70;;;;;;5055414;28;20021;-76
2021/03/26 03:27:45;;;;;;;45.70;27.60;;;6.90;90.60;;;;;;5053854;28;20028;-76
2021/03/26 03:30:11;;;;;;;48.25;30.83;;;6.90;90.60;;;;;;5053892;28;20017;-77
2021/03/26 03:32:40;;;;;;;46.63;29.23;;;6.90;90.70;;;;;;5053916;28;20357;-78
2021/03/26 03:35:11;;;;;;;50.00;31.42;;;7.00;90.80;;;;;;5053700;28;20024;-78
2021/03/26 03:37:58;;;;;;;50.58;31.30;;;7.00;90.80;;;;;;5053798;28;20021;-77
2021/03/26 03:40:33;;;;;;;44.17;29.15;;;7.00;90.80;;;;;;5053661;28;20018;-77
2021/03/26 03:43:18;;;;;;;45.15;30.15;;;7.00;90.80;;;;;;5053297;28;20032;-77
2021/03/26 03:46:32;;;;;;;46.85;30.05;;;7.10;90.70;;;;;;5053398;28;20009;-77
2021/03/26 03:49:23;;;;;;;46.65;28.45;;;7.10;90.70;;;;;;5052956;28;20045;-77
2021/03/26 03:52:14;;;;;;;46.53;30.00;;;7.10;90.60;;;;;;5053642;28;20442;-78
2021/03/26 03:54:46;;;;;;;48.67;29.23;;;7.10;90.60;;;;;;5053469;28;20025;-76
2021/03/26 03:57:23;;;;;;;43.25;27.95;;;7.10;90.50;;;;;;5053303;28;20059;-77
2021/03/26 03:59:59;;;;;;;52.30;30.27;;;7.10;90.60;;;;;;5054372;28;20545;-77
2021/03/26 04:02:49;;;;;;;49.28;31.25;;;7.20;90.60;;;;;;5053308;28;20028;-77
2021/03/26 04:05:21;;;;;;;47.10;29.67;;;7.20;90.60;;;;;;5052596;28;20082;-77
2021/03/26 04:08:02;;;;;;;51.40;31.77;;;7.20;90.70;;;;;;5052890;28;20447;-77
2021/03/26 04:10:34;;;;;;;51.58;33.40;;;7.20;90.80;;;;;;5053129;28;20029;-77
2021/03/26 04:13:05;;;;;;;52.88;32.13;;;7.30;90.90;;;;;;5054320;28;20469;-77
2021/03/26 04:15:44;;;;;;;53.30;30.52;;;7.30;90.90;;;;;;5054053;28;20017;-77
2021/03/26 04:18:15;;;;;;;50.45;31.45;;;7.40;90.90;;;;;;5052994;28;20032;-77
2021/03/26 04:20:49;;;;;;;52.22;33.42;;;7.40;90.90;;;;;;5052919;28;20071;-78
2021/03/26 04:23:25;;;;;;;52.17;32.95;;;7.40;90.90;;;;;;5052833;28;20124;-78
2021/03/26 04:26:33;;;;;;;55.10;33.10;;;7.50;91.00;;;;;;5052850;28;20017;-78
2021/03/26 04:29:13;;;;;;;47.17;28.70;;;7.60;91.00;;;;;;5052837;28;20029;-78
2021/03/26 04:31:48;;;;;;;53.22;31.85;;;7.60;91.10;;;;;;5054493;28;20356;-78
2021/03/26 04:34:15;;;;;;;58.38;34.80;;;7.60;91.10;;;;;;5053725;28;20113;-78
2021/03/26 04:37:19;;;;;;;53.28;31.98;;;7.60;91.10;;;;;;5052760;28;20070;-78
2021/03/26 04:39:45;;;;;;;52.97;32.15;;;7.70;91.10;;;;;;5052395;28;20476;-78
2021/03/26 04:42:18;;;;;;;55.60;34.80;;;7.70;91.00;;;;;;5052571;28;20021;-77
2021/03/26 04:44:54;;;;;;;51.72;31.63;;;7.80;91.10;;;;;;5054063;28;20021;-77
2021/03/26 04:47:24;;;;;;;55.35;31.58;;;7.80;91.10;;;;;;5054670;28;20056;-78
2021/03/26 04:49:55;;;;;;;51.45;31.27;;;7.80;91.00;;;;;;5052304;28;20025;-77
2021/03/26 04:52:27;;;;;;;54.45;32.67;;;8.00;91.10;;;;;;5052385;28;20321;-76
2021/03/26 04:55:08;;;;;;;54.92;33.15;;;7.90;91.10;;;;;;5053673;28;20257;-78
2021/03/26 04:57:46;;;;;;;50.30;31.88;;;8.00;91.00;;;;;;5052227;28;20120;-77
2021/03/26 05:00:24;;;;;;;44.25;28.45;;;8.00;91.00;;;;;;5052171;28;20021;-77
2021/03/26 05:02:59;;;;;;;51.42;31.08;;;8.10;90.80;;;;;;5051788;28;20388;-77
2021/03/26 05:05:26;;;;;;;41.33;25.15;;;8.10;90.90;;;;;;5053030;28;20041;-77
2021/03/26 05:07:58;;;;;;;53.33;31.05;;;8.10;90.70;;;;;;5051623;28;20067;-78
2021/03/26 05:10:27;;;;;;;49.42;30.42;;;8.20;90.70;;;;;;5053311;28;20029;-78
2021/03/26 05:13:01;;;;;;;49.15;30.33;;;8.20;90.70;;;;;;5052972;28;20446;-78
2021/03/26 05:15:47;;;;;;;48.70;30.10;;;8.20;90.60;;;;;;5053075;28;20108;-78
2021/03/26 05:18:39;;;;;;;54.10;32.22;;;8.20;90.50;;;;;;5051771;28;20027;-77
2021/03/26 05:21:17;;;;;;;40.63;26.20;;;8.30;90.50;;;;;;5051508;28;20032;-77
2021/03/26 05:23:53;;;;;;;52.10;30.27;;;8.30;90.30;;;;;;5051687;28;20055;-76
2021/03/26 05:26:19;;;;;;;49.22;28.20;;;8.30;90.20;;;;;;5051678;28;20021;-77
2021/03/26 05:28:47;;;;;;;45.35;27.25;;;8.40;90.20;;;;;;5051530;28;20087;-77
2021/03/26 05:31:37;;;;;;;45.72;29.77;;;8.40;90.00;;;;;;5051305;28;20591;-77
2021/03/26 05:34:25;;;;;;;36.15;23.90;;;8.50;90.00;;;;;;5051392;28;20021;-77
2021/03/26 05:37:19;;;;;;;45.08;28.90;;;8.50;89.50;;;;;;5052157;28;20446;-78
2021/03/26 05:39:52;;;;;;;45.88;27.52;;;8.50;89.30;;;;;;5051441;28;20108;-78
2021/03/26 05:42:57;;;;;;;38.97;25.10;;;8.50;89.30;;;;;;5051189;28;20050;-78
2021/03/26 05:45:42;;;;;;;47.33;26.27;;;8.50;89.00;;;;;;5051321;28;20409;-78
2021/03/26 05:48:27;;;;;;;41.85;27.00;;;8.50;88.90;;;;;;5051014;28;20512;-77
2021/03/26 05:51:23;;;;;;;42.33;23.88;;;8.60;88.80;;;;;;5051078;28;20035;-78
2021/03/26 05:54:07;;;;;;;45.30;27.60;;;8.60;88.60;;;;;;5050922;28;20017;-78
2021/03/26 05:57:10;;;;;;;44.05;27.10;;;8.60;88.50;;;;;;5051025;28;20437;-77
2021/03/26 06:00:01;;;;;;;44.35;26.80;;;8.60;88.60;;;;;;5050963;28;20411;-77
2021/03/26 06:03:02;;;;;;;37.20;25.15;;;8.60;88.30;;;;;;5051913;28;20429;-77
2021/03/26 06:05:40;;;;;;;43.85;27.38;;;8.60;88.20;;;;;;5050681;28;20036;-78
2021/03/26 06:08:13;;;;;;;44.65;28.42;;;8.60;88.20;;;;;;5050589;28;20474;-78
2021/03/26 06:10:57;;;;;;;42.22;24.83;;;8.70;88.30;;;;;;5050787;28;20027;-78
2021/03/26 06:13:23;;;;;;;38.63;25.20;;;8.70;88.00;;;;;;5050525;28;20032;-77
2021/03/26 06:16:07;;;;;;;45.00;26.45;;;8.70;87.90;;;;;;5050589;28;20021;-78
2021/03/26 06:19:18;;;;;;;47.67;26.35;;;8.70;87.40;;;;;;5050662;28;20025;-77
2021/03/26 06:22:08;;;;;;;41.05;25.75;;;8.80;87.40;;;;;;5049504;28;20100;-77
2021/03/26 06:24:49;;;;;;;;;;;8.80;87.30;;;;;;5051071;28;20021;-77
2021/03/26 06:27:19;;;;;;;46.65;27.55;;;8.80;87.10;;;;;;5050444;28;19932;-77
2021/03/26 06:29:47;;;;;;;47.28;26.90;;;8.80;87.10;;;;;;5050782;28;20086;-77
2021/03/26 06:32:58;;;;;;;45.78;27.67;;;8.80;87.00;;;;;;5051528;28;20083;-77
2021/03/26 06:35:48;;;;;;;45.60;26.63;;;8.90;87.00;;;;;;5042717;28;20060;-76
2021/03/26 06:38:42;;;;;;;42.28;24.10;;;8.90;86.60;;;;;;5051998;28;20108;-77
2021/03/26 06:41:24;;;;;;;48.25;27.75;;;8.90;87.10;;;;;;5050482;28;20028;-76
2021/03/26 06:44:07;;;;;;;45.92;27.55;;;8.90;86.20;;;;;;5063181;28;20365;-77
2021/03/26 06:46:49;;;;;;;38.92;24.98;;;9.00;86.30;;;;;;5070317;28;20024;-78
2021/03/26 06:49:47;;;;;;;47.88;27.63;;;9.00;86.00;;;;;;5070789;28;20055;-77
2021/03/26 06:52:31;;;;;;;33.00;20.85;;;9.00;85.80;;;;;;5070289;28;20027;-77
2021/03/26 06:55:16;;;;;;;50.72;28.55;;;9.10;85.80;;;;;;5070409;28;20338;-77
2021/03/26 06:58:11;;;;;;;43.65;27.45;;;9.10;85.80;;;;;;5072084;28;20120;-77
2021/03/26 07:00:50;;;;;;;43.33;26.90;;;9.10;85.70;;;;;;5070559;28;20035;-78
2021/03/26 07:03:50;;;;;;;36.13;21.88;;;9.20;85.50;;;;;;5071467;28;20021;-77
2021/03/26 07:06:53;;;;;;;45.00;28.95;;;9.30;85.40;;;;;;5071723;28;20056;-76
2021/03/26 07:09:58;;;;;;;45.80;28.27;;;9.30;85.10;;;;;;5070373;28;20468;-77
2021/03/26 07:12:57;;;;;;;52.28;29.08;;;9.40;84.70;;;;;;5070044;28;20376;-77
2021/03/26 07:15:29;;;;;;;46.67;28.50;;;9.40;84.10;;;;;;5070379;28;20357;-77
2021/03/26 07:18:17;;;;;;;39.47;24.23;;;9.40;84.30;;;;;;5070507;28;20024;-78
2021/03/26 07:21:08;;;;;;;48.50;27.08;;;9.40;84.10;;;;;;5070780;28;20016;-77
2021/03/26 07:23:47;;;;;;;42.35;26.38;;;9.40;84.10;;;;;;5070322;28;20099;-77
2021/03/26 07:26:47;;;;;;;37.97;23.17;;;9.40;83.70;;;;;;5071040;28;20373;-78
2021/03/26 07:29:42;;;;;;;47.08;29.30;;;9.50;83.50;;;;;;5073922;28;20472;-77
2021/03/26 07:32:17;;;;;;;38.35;23.10;;;9.50;83.50;;;;;;5075864;28;20085;-77
2021/03/26 07:34:58;;;;;;;47.08;28.75;;;9.60;83.20;;;;;;5073779;28;20020;-78
2021/03/26 07:37:35;;;;;;;48.20;30.10;;;9.60;83.10;;;;;;5073749;28;20060;-78
2021/03/26 07:40:32;;;;;;;43.20;27.63;;;9.70;83.00;;;;;;5073492;28;20361;-78
2021/03/26 07:43:31;;;;;;;47.70;29.30;;;9.80;82.70;;;;;;5074385;28;20062;-77
2021/03/26 07:46:09;;;;;;;46.35;29.30;;;9.90;82.40;;;;;;5072953;28;20040;-77
2021/03/26 07:49:02;;;;;;;45.70;28.95;;;10.00;81.40;;;;;;5073289;28;20036;-77
2021/03/26 07:51:30;;;;;;;48.05;30.77;;;10.10;81.00;;;;;;5073331;28;20406;-78
2021/03/26 07:54:33;;;;;;;32.25;20.48;;;10.10;80.50;;;;;;5074231;28;20093;-78
2021/03/26 07:57:39;;;;;;;40.80;25.88;;;10.20;80.60;;;;;;5073220;28;20028;-78
2021/03/26 08:00:22;;;;;;;52.17;30.63;;;10.50;80.20;;;;;;5073103;28;20024;-76
2021/03/26 08:02:56;;;;;;;43.85;26.83;;;10.80;79.70;;;;;;5074536;28;20453;-78
2021/03/26 08:06:15;;;;;;;42.42;25.85;;;11.10;77.70;;;;;;5072899;28;20484;-76
2021/03/26 08:09:09;;;;;;;38.88;24.83;;;11.30;76.40;;;;;;5064454;28;20419;-77
2021/03/26 08:11:59;;;;;;;44.58;27.90;;;11.40;76.30;;;;;;5074363;28;20024;-77
2021/03/26 08:14:43;;;;;;;;;;;11.50;75.30;;;;;;5074470;28;20491;-77
2021/03/26 08:17:25;;;;;;;33.70;21.60;;;11.60;75.40;;;;;;5072643;28;19935;-77
2021/03/26 08:20:10;;;;;;;35.53;23.98;;;11.80;74.90;;;;;;5073967;28;20017;-77
2021/03/26 08:23:02;;;;;;;40.78;24.83;;;12.10;74.50;;;;;;5072926;28;20021;-77
2021/03/26 08:25:47;;;;;;;31.02;19.73;;;12.30;72.90;;;;;;5072806;28;20019;-78
2021/03/26 08:28:24;;;;;;;36.50;23.95;;;12.50;73.00;;;;;;5072552;28;20121;-78
2021/03/26 08:31:09;;;;;;;30.15;17.73;;;12.60;72.10;;;;;;5074256;28;20447;-78
2021/03/26 08:33:46;;;;;;;32.70;21.50;;;12.70;72.50;;;;;;5072895;28;20118;-78
2021/03/26 08:36:16;;;;;;;34.00;24.17;;;12.80;72.30;;;;;;5073708;28;20032;-77
2021/03/26 08:38:47;;;;;;;32.37;21.83;;;12.90;70.70;;;;;;5072044;28;20414;-78
2021/03/26 08:41:33;;;;;;;34.88;21.95;;;12.90;70.10;;;;;;5073400;28;20468;-78
2021/03/26 08:43:59;;;;;;;37.10;23.85;;;13.10;71.70;;;;;;5072091;28;20425;-78
2021/03/26 08:46:31;;;;;;;25.92;15.82;;;13.20;70.60;;;;;;5072345;28;20017;-78
2021/03/26 08:49:22;;;;;;;36.05;23.33;;;13.20;71.80;;;;;;5073249;28;20029;-77
2021/03/26 08:52:19;;;;;;;28.08;18.27;;;13.40;71.00;;;;;;5073681;28;20044;-77
2021/03/26 08:55:20;;;;;;;34.50;21.38;;;13.80;69.80;;;;;;5072253;28;20360;-77
2021/03/26 08:58:04;;;;;;;23.40;16.42;;;13.90;67.20;;;;;;5072108;28;20024;-76
2021/03/26 09:01:02;;;;;;;26.08;17.60;;;14.10;68.90;;;;;;5072187;28;20116;-77
2021/03/26 09:03:48;;;;;;;27.58;18.25;;;14.20;68.90;;;;;;5072985;28;20016;-77
2021/03/26 09:06:55;;;;;;;29.73;18.83;;;14.30;66.60;;;;;;5071954;28;20040;-77
2021/03/26 09:10:02;;;;;;;27.95;17.73;;;14.30;68.60;;;;;;5053980;28;20028;-78
2021/03/26 09:13:01;;;;;;;27.75;17.95;;;14.40;69.10;;;;;;5062458;28;20029;-77
2021/03/26 09:16:17;;;;;;;32.42;19.92;;;14.50;65.80;;;;;;5073007;28;20048;-77
2021/03/26 09:18:46;;;;;;;24.52;16.30;;;14.70;63.30;;;;;;5059674;28;20349;-77
2021/03/26 09:21:47;;;;;;;31.83;20.88;;;14.80;66.10;;;;;;5071356;28;20016;-77
2021/03/26 09:24:50;;;;;;;26.10;14.70;;;15.00;65.10;;;;;;5071346;28;20031;-77
2021/03/26 09:27:34;;;;;;;25.25;17.35;;;15.20;62.30;;;;;;5071228;28;20483;-77
2021/03/26 09:30:07;;;;;;;27.98;17.13;;;15.30;62.30;;;;;;5071489;28;20016;-76
2021/03/26 09:32:45;;;;;;;25.60;15.07;;;15.40;59.70;;;;;;5071437;28;20020;-77
2021/03/26 09:35:26;;;;;;;17.85;10.00;;;15.40;61.60;;;;;;5071160;28;20513;-76
2021/03/26 09:37:54;;;;;;;22.35;15.05;;;15.40;66.80;;;;;;5071270;28;20360;-77
2021/03/26 09:41:00;;;;;;;27.10;15.82;;;15.40;61.70;;;;;;5072264;28;20027;-76
2021/03/26 09:43:32;;;;;;;24.08;14.73;;;15.30;64.00;;;;;;5071033;28;20424;-77
2021/03/26 09:46:02;;;;;;;26.58;15.43;;;15.10;60.70;;;;;;5071333;28;20058;-77
2021/03/26 09:48:46;;;;;;;;;;;15.10;64.20;;;;;;5072507;28;20106;-77
2021/03/26 09:51:42;;;;;;;21.95;14.68;;;15.20;64.50;;;;;;5070847;28;19905;-77
2021/03/26 09:54:38;;;;;;;25.52;15.60;;;15.50;64.30;;;;;;5070943;28;20021;-78
2021/03/26 09:57:32;;;;;;;25.42;16.40;;;15.60;62.00;;;;;;5071022;28;20213;-79
2021/03/26 10:00:38;;;;;;;27.02;15.40;;;15.80;58.60;;;;;;5071236;28;20024;-78
2021/03/26 10:03:12;;;;;;;17.40;10.95;;;16.00;58.60;;;;;;5070993;28;20364;-76
2021/03/26 10:05:44;;;;;;;13.30;8.40;;;16.30;64.60;;;;;;5072706;28;20041;-76
2021/03/26 10:11:10;;;;;;;14.50;7.93;;;16.10;67.70;;;;;;5072759;28;20365;-77
2021/03/26 10:13:47;;;;;;;6.10;3.58;;;15.90;69.00;;;;;;5072946;28;20017;-77
2021/03/26 10:16:16;;;;;;;6.35;3.58;;;15.60;71.70;;;;;;5072601;28;20016;-78
2021/03/26 10:19:06;;;;;;;7.30;3.67;;;15.60;72.60;;;;;;5073169;28;20021;-79
2021/03/26 10:21:33;;;;;;;10.70;3.60;;;15.40;73.10;;;;;;5071019;28;20017;-79
2021/03/26 10:24:27;;;;;;;6.32;3.38;;;15.30;73.20;;;;;;5072335;28;20074;-77
2021/03/26 10:27:02;;;;;;;7.13;4.10;;;15.20;73.80;;;;;;5070782;28;20120;-77
2021/03/26 10:29:53;;;;;;;6.00;3.03;;;15.00;73.60;;;;;;5070609;28;20052;-78
2021/03/26 10:32:26;;;;;;;9.20;3.22;;;14.90;74.70;;;;;;5070553;28;20023;-77
2021/03/26 10:34:54;;;;;;;8.73;4.72;;;14.90;74.00;;;;;;5070729;28;20108;-78
2021/03/26 10:37:47;;;;;;;10.73;4.10;;;14.90;74.20;;;;;;5070616;28;20017;-78
2021/03/26 10:40:50;;;;;;;6.72;3.20;;;14.90;74.50;;;;;;5071926;28;20449;-78
2021/03/26 10:43:30;;;;;;;6.75;3.28;;;15.00;73.70;;;;;;5070311;28;20017;-78
2021/03/26 10:46:04;;;;;;;8.48;4.22;;;15.10;73.30;;;;;;5070793;28;20017;-77
2021/03/26 10:48:42;;;;;;;9.18;4.43;;;15.10;72.60;;;;;;5070253;28;20034;-78
2021/03/26 10:51:24;;;;;;;6.82;3.22;;;15.00;73.00;;;;;;5070446;28;20012;-77
2021/03/26 10:53:58;;;;;;;7.53;3.60;;;15.00;73.50;;;;;;5071936;28;20032;-78
2021/03/26 10:56:27;;;;;;;10.93;3.63;;;15.00;73.00;;;;;;5070311;28;20040;-78
2021/03/26 10:59:03;;;;;;;10.82;5.10;;;15.10;72.70;;;;;;5071837;28;20051;-79
2021/03/26 11:01:37;;;;;;;14.88;5.32;;;15.00;63.30;;;;;;5073308;28;20020;-78
2021/03/26 11:04:29;;;;;;;13.40;4.53;;;14.90;56.00;;;;;;5074470;28;20356;-78
2021/03/26 11:07:26;;;;;;;10.60;4.78;;;14.80;59.40;;;;;;5075704;28;20060;-78
2021/03/26 11:09:59;;;;;;;9.35;4.13;;;14.80;59.00;;;;;;5074950;28;20124;-78
2021/03/26 11:12:29;;;;;;;11.18;4.25;;;14.70;56.50;;;;;;5075220;28;20042;-75
2021/03/26 11:15:19;;;;;;;11.60;4.32;;;14.70;56.70;;;;;;5074152;28;20115;-76
2021/03/26 11:18:16;;;;;;;9.40;3.38;;;14.60;55.80;;;;;;5074212;28;20031;-76
2021/03/26 11:20:49;;;;;;;8.20;2.88;;;14.60;58.20;;;;;;5073558;28;20020;-75
2021/03/26 11:23:29;;;;;;;8.23;3.22;;;14.60;55.90;;;;;;5074916;28;20104;-76
2021/03/26 11:25:57;;;;;;;;;;;14.70;55.70;;;;;;5075512;28;20517;-76
2021/03/26 11:28:27;;;;;;;10.85;3.80;;;14.90;58.60;;;;;;5074801;28;20351;-77
2021/03/26 11:31:11;;;;;;;8.13;2.97;;;15.00;55.20;;;;;;5073605;28;20455;-77
2021/03/26 11:33:47;;;;;;;8.73;3.83;;;15.10;55.20;;;;;;5073674;28;20170;-76
2021/03/26 11:36:36;;;;;;;11.50;4.20;;;15.20;53.40;;;;;;5074658;28;20016;-76
2021/03/26 11:39:20;;;;;;;7.10;3.28;;;15.30;54.90;;;;;;5073338;28;20024;-74
2021/03/26 11:41:53;;;;;;;10.90;3.47;;;15.50;57.20;;;;;;5073571;28;20017;-75
2021/03/26 11:44:24;;;;;;;9.60;2.95;;;15.70;55.90;;;;;;5073149;28;20016;-75
2021/03/26 11:46:55;;;;;;;9.48;3.80;;;15.90;58.40;;;;;;5073464;28;20027;-74
2021/03/26 11:49:30;;;;;;;7.60;3.15;;;16.10;53.00;;;;;;5074559;28;20028;-76
2021/03/26 11:52:09;;;;;;;10.82;3.88;;;16.10;54.30;;;;;;5074395;28;20031;-76
2021/03/26 11:54:40;;;;;;;8.90;3.90;;;16.10;54.80;;;;;;5074329;28;20024;-75
2021/03/26 11:57:23;;;;;;;9.02;3.85;;;16.00;51.50;;;;;;5074218;28;20078;-75
2021/03/26 12:00:20;;;;;;;11.73;4.20;;;15.90;55.50;;;;;;5073139;28;20499;-77
2021/03/26 12:03:06;;;;;;;11.48;3.35;;;16.10;53.40;;;;;;5074401;28;20020;-77
2021/03/26 12:06:00;;;;;;;9.25;3.88;;;16.20;55.50;;;;;;5074081;28;20116;-77
2021/03/26 12:08:50;;;;;;;10.23;3.17;;;16.60;57.20;;;;;;5072534;28;20132;-77
2021/03/26 12:11:34;;;;;;;8.63;2.40;;;16.90;53.60;;;;;;5073092;28;20387;-77
2021/03/26 12:14:21;;;;;;;9.95;2.90;;;17.00;52.10;;;;;;5072606;28;20024;-77
2021/03/26 12:17:04;;;;;;;8.05;2.67;;;17.30;51.70;;;;;;5074301;28;20048;-77
2021/03/26 12:19:36;;;;;;;8.13;2.60;;;17.50;50.60;;;;;;5073740;28;20062;-77
2021/03/26 12:22:30;;;;;;;10.23;3.92;;;17.40;50.40;;;;;;5072638;28;20012;-76
2021/03/26 12:25:06;;;;;;;9.45;3.92;;;17.40;50.70;;;;;;5072629;28;20452;-76
2021/03/26 12:28:24;;;;;;;8.25;3.20;;;17.40;52.20;;;;;;5072279;28;20029;-76
2021/03/26 12:31:21;;;;;;;6.88;2.42;;;17.30;54.70;;;;;;5064937;28;20036;-76
2021/03/26 12:34:01;;;;;;;6.85;3.33;;;17.20;50.80;;;;;;5072294;28;20044;-76
2021/03/26 12:36:37;;;;;;;8.82;3.42;;;17.10;51.70;;;;;;5073504;28;20012;-75
2021/03/26 12:39:10;;;;;;;12.18;3.75;;;17.20;54.10;;;;;;5073671;28;20013;-77
2021/03/26 12:41:42;;;;;;;8.02;3.35;;;17.20;48.80;;;;;;5073464;28;20108;-77
2021/03/26 12:44:26;;;;;;;15.00;4.03;;;17.20;52.90;;;;;;5073873;28;20023;-75
2021/03/26 12:46:57;;;;;;;7.35;3.42;;;17.10;54.70;;;;;;5073614;28;20057;-75
2021/03/26 12:49:53;;;;;;;6.20;2.47;;;17.00;53.00;;;;;;5073313;28;20544;-74
2021/03/26 12:52:31;;;;;;;12.93;2.90;;;17.00;53.10;;;;;;5071563;28;20032;-76
2021/03/26 12:55:21;;;;;;;8.82;3.25;;;17.10;54.50;;;;;;5073392;28;20024;-74
2021/03/26 12:57:50;;;;;;;;;;;17.10;51.20;;;;;;5072678;28;20049;-76
2021/03/26 13:00:38;;;;;;;12.90;3.70;;;16.90;53.60;;;;;;5071691;28;19901;-75
2021/03/26 13:03:42;;;;;;;10.73;3.95;;;16.90;48.90;;;;;;5071525;28;20035;-76
2021/03/26 13:06:27;;;;;;;11.07;4.30;;;16.70;53.50;;;;;;5073067;28;20098;-76
2021/03/26 13:09:07;;;;;;;12.05;3.90;;;16.60;52.10;;;;;;5073132;28;20021;-74
2021/03/26 13:11:42;;;;;;;9.38;3.88;;;16.40;55.70;;;;;;5073075;28;20020;-76
2021/03/26 13:14:25;;;;;;;8.90;4.03;;;16.40;57.80;;;;;;5073513;28;20036;-76
2021/03/26 13:16:53;;;;;;;12.65;4.75;;;16.50;57.30;;;;;;5071707;28;20066;-76
2021/03/26 13:19:19;;;;;;;9.68;4.15;;;16.60;51.00;;;;;;5071352;28;20089;-76
2021/03/26 13:21:59;;;;;;;14.25;4.68;;;16.60;52.60;;;;;;5071633;28;20449;-75
2021/03/26 13:24:51;;;;;;;11.27;4.47;;;16.50;53.50;;;;;;5071602;28;20090;-76
2021/03/26 13:27:23;;;;;;;11.63;4.03;;;16.50;52.30;;;;;;5071144;28;20029;-75
2021/03/26 13:29:56;;;;;;;13.38;5.60;;;16.50;55.50;;;;;;5071289;28;20024;-76
2021/03/26 13:32:27;;;;;;;10.57;4.20;;;16.30;57.40;;;;;;5070871;28;20013;-74
2021/03/26 13:34:58;;;;;;;11.82;4.85;;;16.10;56.10;;;;;;5072518;28;20483;-76
2021/03/26 13:37:32;;;;;;;9.48;3.53;;;15.90;54.90;;;;;;5072198;28;20025;-76
2021/03/26 13:40:11;;;;;;;13.35;5.05;;;15.90;57.30;;;;;;5072156;28;20020;-75
2021/03/26 13:42:49;;;;;;;12.93;4.43;;;15.90;55.20;;;;;;5072323;28;20107;-76
2021/03/26 13:45:23;;;;;;;8.90;3.97;;;16.00;53.80;;;;;;5072924;28;20490;-75